54077/Bareilly - Delhi Passenger
     बरेली - दिल्ली सवारी गाडी

Time-Table CHANGES effective Aug 15, 2018
Comparison of Old and New Time-Tables

Time-Table has Changed. Show Changes
Departure Time Changed. Arrival Time Changed. Slowed down by: 30m.


OLD TIME-TABLE

Travel Time: 9h 45m    26 halts    Distance: 274 km    Avg Speed: 28 km/hr
Type: Passenger
Zone: NR/Northern
Departs @ 17:55
Platform# ???
SMTWTFS
Bareilly Junction/BE 
Arrives @ 03:40 +1 night
Platform# ???
SMTWTFS
Old Delhi Junction/DLI 

Old TT effective UNTIL Jun 30, 2019.

26 halts. 48 intermediate Stations between Bareilly Junction and Old Delhi Junction

#TrkCodeStation NameArrivesDepartsHaltPFDay#KmSpeedElevZoneAddress
1|--|BEBareilly Junction»  17:55 17:15--10.027 NRPIN 243003, Uttar Pradesh
2|--|RGBRamganga Bridge NR  18:08 17:2718:09 17:281m--15.850 NRState Highway 33, Uttar Pradesh
3|--|BTGBasharatGanj  18:20 17:3918:22 17:422 3m--115.024167mNRBareilly, Uttar Pradesh
4|--|NSUNisoi  18:34 17:5218:35 17:531m--119.740167mNRBareilly Distt, Uttar Pradesh
5|--|AOAonla  18:45 18:0018:50 18:055m--126.447176mNRIndia, Uttar Pradesh
6|--|RBKReoti Bahora Khera  18:57 18:1718:58 18:181m--131.855178mNRChandausi Road Bareilly Distribution 243301, Uttar Pradesh
7|--|KEGKarengi  19:06 18:2519:08 18:272m--139.119182mNRRamkantha Karengi Chandausi Road, Uttar Pradesh
8|--|DUBDabtara  19:25 18:4019:30 18:425 2m--144.447182mNRBisauli, Uttar Pradesh
9|--|PRKEPurua Khera  19:37 18:5019:38 18:521 2m--149.937182mNRPin - 243632, Uttar Pradesh
10|--|AFRAsafpur  19:46 19:0019:48 19:022m--154.947186mNRDistt. Budaun, Uttar Pradesh
11|--|SSKASisarka  19:56 19:1519:58 19:172m--161.117188mNRChandausi, Uttar Pradesh
12|--|CHChandausi Junction  20:25 19:4320:55 19:5530 12m--168.576 NRDist Sambhal, Uttar Pradesh
13|--|GTFGumthal  21:02 20:0621:04 20:082m--177.333192mNRRaja Ka Sahaspur, Uttar Pradesh
14|--|JRJJargaon  21:14 20:2121:16 20:232m--182.928190mNRChandausi, Uttar Pradesh
15|--|RJKRaja Ka Sahaspur Junction  21:28 20:3521:30 20:372m--188.435198mNRBilari, Uttar Pradesh
16|--|KDKundarkhi  21:40 20:4321:42 20:452m--194.234198mNRMoradabad, Uttar Pradesh
17|--|MCVMacharya  21:54 20:5821:56 21:002m--1101.128 NRPincode-244001., Uttar Pradesh
18|--|MBMoradabad Junction22:20 21:4022:55 22:2535 45m--1112.446 NR244001, Uttar Pradesh
19|--|AMROAmroha  23:35 22:5523:40 23:005m--1142.955216mNRAmroha, Uttar Pradesh
20|--|GJLGajraula Junction  00:05 23:3000:10 23:355m--2165.860 NRPin - 244235, Uttar Pradesh
21|--|GGBGarhmuktesar Bridge  00:24 00:0200:25 00:031m--2179.731 NRNH-24, Uttar Pradesh
22|--|GMSGarhmuktesar  00:38 00:1000:43 00:155m--2186.472220mNRGarhmukteshwar, Uttar Pradesh
23|--|SMBLSimbhooli  00:51 00:3300:53 00:352m--2196.045217mNRPin - 245207, Uttar Pradesh
24|--|HPUHapur Junction  01:20 01:0501:32 01:3012 25m--2216.445 NRHapur Jn., Uttar Pradesh
25|--|PKWPilkhua  01:47 01:4001:52 01:455m--2227.631 NRPilkhuwa (Uttar Pradesh), Uttar Pradesh
26|--|GZBGhaziabad Junction  02:42 02:3502:44 02:372m--2253.235 NR201009, Uttar Pradesh
27|--|DSADelhi Shahdara Junction  03:08 02:5803:10 03:002m--2267.013210mNRDelhi 110032, Delhi NCT
28|--|DLIOld Delhi Junction•  03:40 03:30--2273.6-219mNRDelhi 110006, Delhi NCT


NEW TIME-TABLE

The Shortest Route between Bareilly Jn and Old Delhi Jn is 22 km (8%) shorter.
Travel Time: 10h 15m    26 halts    Distance: 274 km    Avg Speed: 27 km/hr
Max Permissible Speed: n/a
Type: Passenger
Rake Zone: NR/Northern
Departs @ 17:15
Platform# 4
SMTWTFS
BE/Bareilly Jn 
Arrives @ 03:30 +1 night
Platform# 9
SMTWTFS
DLI/Old Delhi Jn 

NEW TT effective Jun 30, 2019.

26 halts. 48 intermediate Stations between Bareilly Junction and Old Delhi Junction

#TrkCodeStation NameArrivesDepartsHaltPFDay#KmSpeedElevZoneAddress
1/--/BEBareilly Junction»  17:55 17:15410.029 NRPIN 243003, Uttar Pradesh
2/--/RGBRamganga Bridge NR  18:08 17:2718:09 17:281m015.850 NRState Highway 33, Uttar Pradesh
3/--/BTGBasharatGanj  18:20 17:3918:22 17:422 3m0115.028167mNRBareilly, Uttar Pradesh
4/--/NSUNisoi  18:34 17:5218:35 17:531m0119.757167mNRBareilly Distt, Uttar Pradesh
5/--/AOAonla  18:45 18:0018:50 18:055m1126.427176mNRIndia, Uttar Pradesh
6/--/RBKReoti Bahora Khera  18:57 18:1718:58 18:181m1131.862178mNRChandausi Road Bareilly Distribution 243301, Uttar Pradesh
7/--/KEGKarengi  19:06 18:2519:08 18:272m0139.125182mNRRamkantha Karengi Chandausi Road, Uttar Pradesh
8/--/DUBDabtara  19:25 18:4019:30 18:425 2m1144.441182mNRBisauli, Uttar Pradesh
9/--/PRKEPurua Khera  19:37 18:5019:38 18:521 2m0149.937182mNRPin - 243632, Uttar Pradesh
10/--/AFRAsafpur  19:46 19:0019:48 19:022m0154.929186mNRDistt. Budaun, Uttar Pradesh
11/--/SSKASisarka  19:56 19:1519:58 19:172m0161.117188mNRChandausi, Uttar Pradesh
12/--/CHChandausi Junction  20:25 19:4320:55 19:5530 12m0168.548 NRDist Sambhal, Uttar Pradesh
13/--/GTFGumthal  21:02 20:0621:04 20:082m0177.326192mNRRaja Ka Sahaspur, Uttar Pradesh
14/--/JRJJargaon  21:14 20:2121:16 20:232m0182.928190mNRChandausi, Uttar Pradesh
15/--/RJKRaja Ka Sahaspur Junction  21:28 20:3521:30 20:372m0188.458198mNRBilari, Uttar Pradesh
16/--/KDKundarkhi  21:40 20:4321:42 20:452m0194.231198mNRMoradabad, Uttar Pradesh
17/--/MCVMacharya  21:54 20:5821:56 21:002m01101.117 NRPincode-244001., Uttar Pradesh
18/--/MBMoradabad Junction22:20 21:4022:55 22:2535 45m51112.461 NR244001, Uttar Pradesh
19/==/AMROAmroha  23:35 22:5523:40 23:005m21142.946216mNRAmroha, Uttar Pradesh
20/==/GJLGajraula Junction  00:05 23:3000:10 23:355m01165.831 NRPin - 244235, Uttar Pradesh
21/==/GGBGarhmuktesar Bridge  00:24 00:0200:25 00:031m12179.758 NRNH-24, Uttar Pradesh
22/==/GMSGarhmuktesar  00:38 00:1000:43 00:155m02186.432220mNRGarhmukteshwar, Uttar Pradesh
23/==/SMBLSimbhooli  00:51 00:3300:53 00:352m02196.041217mNRPin - 245207, Uttar Pradesh
24/==/HPUHapur Junction  01:20 01:0501:32 01:3012 25m12216.467 NRHapur Jn., Uttar Pradesh
25/==/PKWPilkhua  01:47 01:4001:52 01:455m12227.631 NRPilkhuwa (Uttar Pradesh), Uttar Pradesh
26/==/GZBGhaziabad Junction  02:42 02:3502:44 02:372m3,42253.239 NR201009, Uttar Pradesh
27/==/DSADelhi Shahdara Junction  03:08 02:5803:10 03:002m42267.013210mNRDelhi 110032, Delhi NCT
28/==/DLIOld Delhi Junction•  03:40 03:3092273.6-219mNRDelhi 110006, Delhi NCT
Go to Full Mobile site